sensor_id;sensor_type;location;lat;lon;timestamp;P1;durP1;ratioP1;P2;durP2;ratioP2
67979;SDS011;54760;47.490;19.030;2024-03-06T00:02:09;24.27;;;16.25;;
67979;SDS011;54760;47.490;19.030;2024-03-06T00:04:35;23.58;;;15.63;;
67979;SDS011;54760;47.490;19.030;2024-03-06T00:07:01;24.30;;;15.32;;
67979;SDS011;54760;47.490;19.030;2024-03-06T00:09:27;25.08;;;16.55;;
67979;SDS011;54760;47.490;19.030;2024-03-06T00:11:55;23.55;;;15.23;;
67979;SDS011;54760;47.490;19.030;2024-03-06T00:14:21;28.42;;;15.95;;
67979;SDS011;54760;47.490;19.030;2024-03-06T00:16:48;22.35;;;14.82;;
67979;SDS011;54760;47.490;19.030;2024-03-06T00:19:15;23.95;;;15.25;;
67979;SDS011;54760;47.490;19.030;2024-03-06T00:21:41;23.60;;;15.50;;
67979;SDS011;54760;47.490;19.030;2024-03-06T00:24:06;22.27;;;15.13;;
67979;SDS011;54760;47.490;19.030;2024-03-06T00:26:32;23.15;;;15.40;;
67979;SDS011;54760;47.490;19.030;2024-03-06T00:28:57;24.27;;;15.20;;
67979;SDS011;54760;47.490;19.030;2024-03-06T00:31:24;21.27;;;15.02;;
67979;SDS011;54760;47.490;19.030;2024-03-06T00:33:49;21.48;;;14.20;;
67979;SDS011;54760;47.490;19.030;2024-03-06T00:36:14;22.23;;;14.35;;
67979;SDS011;54760;47.490;19.030;2024-03-06T00:38:40;22.45;;;14.32;;
67979;SDS011;54760;47.490;19.030;2024-03-06T00:41:05;23.38;;;14.38;;
67979;SDS011;54760;47.490;19.030;2024-03-06T00:43:31;22.85;;;14.40;;
67979;SDS011;54760;47.490;19.030;2024-03-06T00:45:56;21.75;;;14.25;;
67979;SDS011;54760;47.490;19.030;2024-03-06T00:48:22;23.58;;;14.40;;
67979;SDS011;54760;47.490;19.030;2024-03-06T00:50:47;22.83;;;14.57;;
67979;SDS011;54760;47.490;19.030;2024-03-06T00:53:12;19.95;;;13.88;;
67979;SDS011;54760;47.490;19.030;2024-03-06T00:55:38;23.33;;;14.40;;
67979;SDS011;54760;47.490;19.030;2024-03-06T00:58:03;23.55;;;14.60;;
67979;SDS011;54760;47.490;19.030;2024-03-06T01:00:29;21.00;;;13.80;;
67979;SDS011;54760;47.490;19.030;2024-03-06T01:02:55;22.42;;;14.43;;
67979;SDS011;54760;47.490;19.030;2024-03-06T01:05:20;21.25;;;13.93;;
67979;SDS011;54760;47.490;19.030;2024-03-06T01:07:46;21.40;;;14.35;;
67979;SDS011;54760;47.490;19.030;2024-03-06T01:10:12;21.15;;;14.55;;
67979;SDS011;54760;47.490;19.030;2024-03-06T01:12:37;21.98;;;14.60;;
67979;SDS011;54760;47.490;19.030;2024-03-06T01:15:03;24.67;;;14.43;;
67979;SDS011;54760;47.490;19.030;2024-03-06T01:17:29;22.42;;;15.18;;
67979;SDS011;54760;47.490;19.030;2024-03-06T01:19:54;23.30;;;15.30;;
67979;SDS011;54760;47.490;19.030;2024-03-06T01:22:20;22.20;;;14.38;;
67979;SDS011;54760;47.490;19.030;2024-03-06T01:24:45;23.67;;;15.00;;
67979;SDS011;54760;47.490;19.030;2024-03-06T01:27:13;23.73;;;14.93;;
67979;SDS011;54760;47.490;19.030;2024-03-06T01:29:40;23.40;;;15.32;;
67979;SDS011;54760;47.490;19.030;2024-03-06T01:32:06;25.70;;;15.25;;
67979;SDS011;54760;47.490;19.030;2024-03-06T01:34:31;24.85;;;15.40;;
67979;SDS011;54760;47.490;19.030;2024-03-06T01:36:56;23.00;;;13.85;;
67979;SDS011;54760;47.490;19.030;2024-03-06T01:39:22;27.90;;;15.50;;
67979;SDS011;54760;47.490;19.030;2024-03-06T01:41:48;23.20;;;15.07;;
67979;SDS011;54760;47.490;19.030;2024-03-06T01:44:14;25.88;;;14.70;;
67979;SDS011;54760;47.490;19.030;2024-03-06T01:46:40;23.05;;;14.35;;
67979;SDS011;54760;47.490;19.030;2024-03-06T01:49:05;22.00;;;14.35;;
67979;SDS011;54760;47.490;19.030;2024-03-06T01:51:32;23.55;;;16.00;;
67979;SDS011;54760;47.490;19.030;2024-03-06T01:53:57;24.55;;;15.00;;
67979;SDS011;54760;47.490;19.030;2024-03-06T01:56:25;23.50;;;15.43;;
67979;SDS011;54760;47.490;19.030;2024-03-06T01:58:52;24.37;;;15.30;;
67979;SDS011;54760;47.490;19.030;2024-03-06T02:01:19;25.12;;;15.45;;
67979;SDS011;54760;47.490;19.030;2024-03-06T02:03:46;24.00;;;15.20;;
67979;SDS011;54760;47.490;19.030;2024-03-06T02:06:12;24.95;;;15.25;;
67979;SDS011;54760;47.490;19.030;2024-03-06T02:08:40;23.70;;;15.23;;
67979;SDS011;54760;47.490;19.030;2024-03-06T02:11:06;28.33;;;16.17;;
67979;SDS011;54760;47.490;19.030;2024-03-06T02:13:32;27.90;;;16.45;;
67979;SDS011;54760;47.490;19.030;2024-03-06T02:15:58;23.92;;;16.02;;
67979;SDS011;54760;47.490;19.030;2024-03-06T02:18:24;23.83;;;15.80;;
67979;SDS011;54760;47.490;19.030;2024-03-06T02:20:49;25.75;;;16.65;;
67979;SDS011;54760;47.490;19.030;2024-03-06T02:23:15;31.52;;;16.58;;
67979;SDS011;54760;47.490;19.030;2024-03-06T02:25:43;24.92;;;15.45;;
67979;SDS011;54760;47.490;19.030;2024-03-06T02:28:12;24.42;;;15.80;;
67979;SDS011;54760;47.490;19.030;2024-03-06T02:30:37;26.15;;;15.85;;
67979;SDS011;54760;47.490;19.030;2024-03-06T02:33:03;25.02;;;15.25;;
67979;SDS011;54760;47.490;19.030;2024-03-06T02:35:29;24.98;;;15.35;;
67979;SDS011;54760;47.490;19.030;2024-03-06T02:37:55;28.10;;;15.45;;
67979;SDS011;54760;47.490;19.030;2024-03-06T02:40:22;24.58;;;15.15;;
67979;SDS011;54760;47.490;19.030;2024-03-06T02:42:47;25.27;;;14.48;;
67979;SDS011;54760;47.490;19.030;2024-03-06T02:45:13;23.98;;;13.95;;
67979;SDS011;54760;47.490;19.030;2024-03-06T02:47:38;21.30;;;14.52;;
67979;SDS011;54760;47.490;19.030;2024-03-06T02:50:04;23.42;;;15.25;;
67979;SDS011;54760;47.490;19.030;2024-03-06T02:52:30;22.23;;;14.07;;
67979;SDS011;54760;47.490;19.030;2024-03-06T02:54:56;24.52;;;13.60;;
67979;SDS011;54760;47.490;19.030;2024-03-06T02:57:21;22.95;;;13.82;;
67979;SDS011;54760;47.490;19.030;2024-03-06T02:59:46;21.62;;;13.50;;
67979;SDS011;54760;47.490;19.030;2024-03-06T03:02:12;21.05;;;13.27;;
67979;SDS011;54760;47.490;19.030;2024-03-06T03:04:38;22.42;;;14.60;;
67979;SDS011;54760;47.490;19.030;2024-03-06T03:07:03;23.30;;;13.85;;
67979;SDS011;54760;47.490;19.030;2024-03-06T03:09:29;20.50;;;13.32;;
67979;SDS011;54760;47.490;19.030;2024-03-06T03:11:54;23.23;;;12.98;;
67979;SDS011;54760;47.490;19.030;2024-03-06T03:14:20;22.98;;;13.18;;
67979;SDS011;54760;47.490;19.030;2024-03-06T03:16:45;19.67;;;13.02;;
67979;SDS011;54760;47.490;19.030;2024-03-06T03:19:10;22.05;;;13.32;;
67979;SDS011;54760;47.490;19.030;2024-03-06T03:21:36;22.23;;;12.82;;
67979;SDS011;54760;47.490;19.030;2024-03-06T03:24:01;19.05;;;12.98;;
67979;SDS011;54760;47.490;19.030;2024-03-06T03:26:28;18.62;;;12.48;;
67979;SDS011;54760;47.490;19.030;2024-03-06T03:28:53;23.83;;;13.00;;
67979;SDS011;54760;47.490;19.030;2024-03-06T03:31:20;20.83;;;13.18;;
67979;SDS011;54760;47.490;19.030;2024-03-06T03:33:46;19.58;;;12.85;;
67979;SDS011;54760;47.490;19.030;2024-03-06T03:36:11;19.17;;;12.00;;
67979;SDS011;54760;47.490;19.030;2024-03-06T03:38:37;18.52;;;12.23;;
67979;SDS011;54760;47.490;19.030;2024-03-06T03:41:12;20.20;;;12.75;;
67979;SDS011;54760;47.490;19.030;2024-03-06T03:43:38;21.55;;;12.60;;
67979;SDS011;54760;47.490;19.030;2024-03-06T03:46:04;17.60;;;12.35;;
67979;SDS011;54760;47.490;19.030;2024-03-06T03:48:31;18.45;;;11.60;;
67979;SDS011;54760;47.490;19.030;2024-03-06T03:50:57;22.90;;;12.32;;
67979;SDS011;54760;47.490;19.030;2024-03-06T03:53:22;17.25;;;11.52;;
67979;SDS011;54760;47.490;19.030;2024-03-06T03:55:48;18.45;;;10.93;;
67979;SDS011;54760;47.490;19.030;2024-03-06T03:58:13;18.35;;;11.43;;
67979;SDS011;54760;47.490;19.030;2024-03-06T04:00:38;21.23;;;12.48;;
67979;SDS011;54760;47.490;19.030;2024-03-06T04:03:04;16.02;;;11.43;;
67979;SDS011;54760;47.490;19.030;2024-03-06T04:05:29;20.05;;;12.60;;
67979;SDS011;54760;47.490;19.030;2024-03-06T04:07:56;21.73;;;12.52;;
67979;SDS011;54760;47.490;19.030;2024-03-06T04:10:22;18.40;;;11.57;;
67979;SDS011;54760;47.490;19.030;2024-03-06T04:12:47;19.73;;;11.77;;
67979;SDS011;54760;47.490;19.030;2024-03-06T04:15:12;16.05;;;10.40;;
67979;SDS011;54760;47.490;19.030;2024-03-06T04:17:38;18.12;;;10.98;;
67979;SDS011;54760;47.490;19.030;2024-03-06T04:20:06;15.75;;;10.85;;
67979;SDS011;54760;47.490;19.030;2024-03-06T04:22:32;20.77;;;12.43;;
67979;SDS011;54760;47.490;19.030;2024-03-06T04:24:57;20.80;;;12.80;;
67979;SDS011;54760;47.490;19.030;2024-03-06T04:27:24;22.37;;;14.73;;
67979;SDS011;54760;47.490;19.030;2024-03-06T04:29:50;20.65;;;13.35;;
67979;SDS011;54760;47.490;19.030;2024-03-06T04:32:15;22.52;;;14.30;;
67979;SDS011;54760;47.490;19.030;2024-03-06T04:34:41;19.23;;;12.02;;
67979;SDS011;54760;47.490;19.030;2024-03-06T04:37:06;17.65;;;11.88;;
67979;SDS011;54760;47.490;19.030;2024-03-06T04:39:32;16.60;;;10.95;;
67979;SDS011;54760;47.490;19.030;2024-03-06T04:41:57;18.62;;;11.05;;
67979;SDS011;54760;47.490;19.030;2024-03-06T04:44:23;17.35;;;11.23;;
67979;SDS011;54760;47.490;19.030;2024-03-06T04:46:51;21.20;;;11.85;;
67979;SDS011;54760;47.490;19.030;2024-03-06T04:49:16;20.02;;;11.82;;
67979;SDS011;54760;47.490;19.030;2024-03-06T04:51:42;16.95;;;11.25;;
67979;SDS011;54760;47.490;19.030;2024-03-06T04:54:07;15.73;;;10.23;;
67979;SDS011;54760;47.490;19.030;2024-03-06T04:56:33;17.02;;;11.40;;
67979;SDS011;54760;47.490;19.030;2024-03-06T04:58:59;16.70;;;11.48;;
67979;SDS011;54760;47.490;19.030;2024-03-06T05:01:28;14.68;;;9.60;;
67979;SDS011;54760;47.490;19.030;2024-03-06T05:03:54;16.40;;;10.43;;
67979;SDS011;54760;47.490;19.030;2024-03-06T05:06:19;15.93;;;10.38;;
67979;SDS011;54760;47.490;19.030;2024-03-06T05:08:47;20.12;;;10.70;;
67979;SDS011;54760;47.490;19.030;2024-03-06T05:11:12;16.73;;;10.32;;
67979;SDS011;54760;47.490;19.030;2024-03-06T05:13:37;17.40;;;10.93;;
67979;SDS011;54760;47.490;19.030;2024-03-06T05:16:03;17.67;;;10.70;;
67979;SDS011;54760;47.490;19.030;2024-03-06T05:18:28;17.95;;;10.65;;
67979;SDS011;54760;47.490;19.030;2024-03-06T05:20:54;18.02;;;11.12;;
67979;SDS011;54760;47.490;19.030;2024-03-06T05:23:19;25.55;;;11.93;;
67979;SDS011;54760;47.490;19.030;2024-03-06T05:25:45;25.92;;;11.12;;
67979;SDS011;54760;47.490;19.030;2024-03-06T05:28:10;16.00;;;10.70;;
67979;SDS011;54760;47.490;19.030;2024-03-06T05:30:36;19.02;;;11.75;;
67979;SDS011;54760;47.490;19.030;2024-03-06T05:33:01;24.65;;;11.75;;
67979;SDS011;54760;47.490;19.030;2024-03-06T05:35:27;21.30;;;12.90;;
67979;SDS011;54760;47.490;19.030;2024-03-06T05:37:52;23.95;;;13.05;;
67979;SDS011;54760;47.490;19.030;2024-03-06T05:40:18;19.77;;;12.27;;
67979;SDS011;54760;47.490;19.030;2024-03-06T05:42:43;21.87;;;12.25;;
67979;SDS011;54760;47.490;19.030;2024-03-06T05:45:08;20.48;;;12.95;;
67979;SDS011;54760;47.490;19.030;2024-03-06T05:47:37;24.33;;;13.10;;
67979;SDS011;54760;47.490;19.030;2024-03-06T05:50:03;19.50;;;12.77;;
67979;SDS011;54760;47.490;19.030;2024-03-06T05:52:33;22.73;;;12.98;;
67979;SDS011;54760;47.490;19.030;2024-03-06T05:55:01;21.67;;;12.10;;
67979;SDS011;54760;47.490;19.030;2024-03-06T05:57:26;22.08;;;12.77;;
67979;SDS011;54760;47.490;19.030;2024-03-06T05:59:51;20.85;;;12.75;;
67979;SDS011;54760;47.490;19.030;2024-03-06T06:02:17;22.25;;;12.43;;
67979;SDS011;54760;47.490;19.030;2024-03-06T06:04:44;24.17;;;12.73;;
67979;SDS011;54760;47.490;19.030;2024-03-06T06:07:10;22.52;;;12.60;;
67979;SDS011;54760;47.490;19.030;2024-03-06T06:09:35;25.52;;;12.82;;
67979;SDS011;54760;47.490;19.030;2024-03-06T06:12:00;19.48;;;12.25;;
67979;SDS011;54760;47.490;19.030;2024-03-06T06:14:26;21.17;;;13.10;;
67979;SDS011;54760;47.490;19.030;2024-03-06T06:16:54;20.62;;;12.37;;
67979;SDS011;54760;47.490;19.030;2024-03-06T06:19:21;22.37;;;11.65;;
67979;SDS011;54760;47.490;19.030;2024-03-06T06:21:46;16.48;;;11.40;;
67979;SDS011;54760;47.490;19.030;2024-03-06T06:24:12;19.08;;;11.25;;
67979;SDS011;54760;47.490;19.030;2024-03-06T06:26:38;15.07;;;10.60;;
67979;SDS011;54760;47.490;19.030;2024-03-06T06:29:04;18.45;;;11.55;;
67979;SDS011;54760;47.490;19.030;2024-03-06T06:31:29;23.75;;;11.02;;
67979;SDS011;54760;47.490;19.030;2024-03-06T06:33:55;21.70;;;10.13;;
67979;SDS011;54760;47.490;19.030;2024-03-06T06:36:20;15.80;;;10.45;;
67979;SDS011;54760;47.490;19.030;2024-03-06T06:38:46;16.75;;;10.40;;
67979;SDS011;54760;47.490;19.030;2024-03-06T06:41:13;21.92;;;10.90;;
67979;SDS011;54760;47.490;19.030;2024-03-06T06:43:39;18.02;;;10.65;;
67979;SDS011;54760;47.490;19.030;2024-03-06T06:46:06;16.75;;;10.55;;
67979;SDS011;54760;47.490;19.030;2024-03-06T06:48:32;17.98;;;11.02;;
67979;SDS011;54760;47.490;19.030;2024-03-06T06:50:58;17.83;;;10.30;;
67979;SDS011;54760;47.490;19.030;2024-03-06T06:53:28;23.58;;;12.23;;
67979;SDS011;54760;47.490;19.030;2024-03-06T06:55:54;27.77;;;13.27;;
67979;SDS011;54760;47.490;19.030;2024-03-06T06:58:20;23.52;;;13.35;;
67979;SDS011;54760;47.490;19.030;2024-03-06T07:00:45;24.48;;;14.77;;
67979;SDS011;54760;47.490;19.030;2024-03-06T07:03:11;26.52;;;16.12;;
67979;SDS011;54760;47.490;19.030;2024-03-06T07:05:36;27.15;;;17.10;;
67979;SDS011;54760;47.490;19.030;2024-03-06T07:08:01;29.45;;;16.30;;
67979;SDS011;54760;47.490;19.030;2024-03-06T07:10:27;47.22;;;23.48;;
67979;SDS011;54760;47.490;19.030;2024-03-06T07:12:52;31.08;;;19.27;;
67979;SDS011;54760;47.490;19.030;2024-03-06T07:15:18;29.27;;;17.90;;
67979;SDS011;54760;47.490;19.030;2024-03-06T07:17:43;33.88;;;19.95;;
67979;SDS011;54760;47.490;19.030;2024-03-06T07:20:09;26.42;;;18.73;;
67979;SDS011;54760;47.490;19.030;2024-03-06T07:22:35;34.90;;;19.60;;
67979;SDS011;54760;47.490;19.030;2024-03-06T07:25:01;35.53;;;19.67;;
67979;SDS011;54760;47.490;19.030;2024-03-06T07:27:30;32.38;;;20.17;;
67979;SDS011;54760;47.490;19.030;2024-03-06T07:29:56;32.55;;;19.30;;
67979;SDS011;54760;47.490;19.030;2024-03-06T07:32:21;28.10;;;17.80;;
67979;SDS011;54760;47.490;19.030;2024-03-06T07:34:47;28.12;;;18.12;;
67979;SDS011;54760;47.490;19.030;2024-03-06T07:37:12;29.15;;;16.83;;
67979;SDS011;54760;47.490;19.030;2024-03-06T07:39:39;29.27;;;18.52;;
67979;SDS011;54760;47.490;19.030;2024-03-06T07:42:04;28.33;;;17.67;;
67979;SDS011;54760;47.490;19.030;2024-03-06T07:44:30;30.12;;;18.50;;
67979;SDS011;54760;47.490;19.030;2024-03-06T07:46:55;31.92;;;18.58;;
67979;SDS011;54760;47.490;19.030;2024-03-06T07:49:21;36.13;;;19.02;;
67979;SDS011;54760;47.490;19.030;2024-03-06T07:51:47;29.65;;;17.67;;
67979;SDS011;54760;47.490;19.030;2024-03-06T07:54:12;29.87;;;17.48;;
67979;SDS011;54760;47.490;19.030;2024-03-06T07:56:38;35.30;;;17.90;;
67979;SDS011;54760;47.490;19.030;2024-03-06T07:59:03;25.77;;;15.88;;
67979;SDS011;54760;47.490;19.030;2024-03-06T08:01:30;26.17;;;14.32;;
67979;SDS011;54760;47.490;19.030;2024-03-06T08:03:56;21.77;;;13.57;;
67979;SDS011;54760;47.490;19.030;2024-03-06T08:06:22;18.27;;;11.82;;
67979;SDS011;54760;47.490;19.030;2024-03-06T08:08:48;16.27;;;11.10;;
67979;SDS011;54760;47.490;19.030;2024-03-06T08:11:14;19.12;;;11.32;;
67979;SDS011;54760;47.490;19.030;2024-03-06T08:13:40;18.37;;;11.45;;
67979;SDS011;54760;47.490;19.030;2024-03-06T08:16:06;18.45;;;11.35;;
67979;SDS011;54760;47.490;19.030;2024-03-06T08:18:33;18.10;;;11.35;;
67979;SDS011;54760;47.490;19.030;2024-03-06T08:20:59;22.30;;;11.77;;
67979;SDS011;54760;47.490;19.030;2024-03-06T08:23:25;18.17;;;10.93;;
67979;SDS011;54760;47.490;19.030;2024-03-06T08:25:51;14.32;;;10.20;;
67979;SDS011;54760;47.490;19.030;2024-03-06T08:28:17;21.08;;;11.73;;
67979;SDS011;54760;47.490;19.030;2024-03-06T08:30:43;14.98;;;10.63;;
67979;SDS011;54760;47.490;19.030;2024-03-06T08:33:11;17.50;;;9.45;;
67979;SDS011;54760;47.490;19.030;2024-03-06T08:35:37;13.90;;;8.68;;
67979;SDS011;54760;47.490;19.030;2024-03-06T08:38:03;11.75;;;8.32;;
67979;SDS011;54760;47.490;19.030;2024-03-06T08:40:29;12.50;;;8.57;;
67979;SDS011;54760;47.490;19.030;2024-03-06T08:42:54;9.75;;;7.25;;
67979;SDS011;54760;47.490;19.030;2024-03-06T08:45:21;10.32;;;7.15;;
67979;SDS011;54760;47.490;19.030;2024-03-06T08:47:48;13.35;;;7.53;;
67979;SDS011;54760;47.490;19.030;2024-03-06T08:50:14;13.43;;;7.97;;
67979;SDS011;54760;47.490;19.030;2024-03-06T08:52:40;13.55;;;7.78;;
67979;SDS011;54760;47.490;19.030;2024-03-06T08:55:06;12.25;;;8.57;;
67979;SDS011;54760;47.490;19.030;2024-03-06T08:57:32;8.32;;;7.00;;
67979;SDS011;54760;47.490;19.030;2024-03-06T08:59:58;9.35;;;7.97;;
67979;SDS011;54760;47.490;19.030;2024-03-06T09:02:24;12.85;;;8.77;;
67979;SDS011;54760;47.490;19.030;2024-03-06T09:04:50;8.32;;;7.40;;
67979;SDS011;54760;47.490;19.030;2024-03-06T09:07:17;13.32;;;8.00;;
67979;SDS011;54760;47.490;19.030;2024-03-06T09:09:43;11.15;;;7.28;;
67979;SDS011;54760;47.490;19.030;2024-03-06T09:12:09;18.55;;;8.00;;
67979;SDS011;54760;47.490;19.030;2024-03-06T09:14:35;12.55;;;7.43;;
67979;SDS011;54760;47.490;19.030;2024-03-06T09:17:02;15.68;;;7.97;;
67979;SDS011;54760;47.490;19.030;2024-03-06T09:19:29;11.00;;;6.40;;
67979;SDS011;54760;47.490;19.030;2024-03-06T09:21:56;9.95;;;7.40;;
67979;SDS011;54760;47.490;19.030;2024-03-06T09:24:22;11.43;;;7.07;;
67979;SDS011;54760;47.490;19.030;2024-03-06T09:26:48;11.68;;;10.20;;
67979;SDS011;54760;47.490;19.030;2024-03-06T09:29:14;15.70;;;8.20;;
67979;SDS011;54760;47.490;19.030;2024-03-06T09:31:39;12.30;;;8.15;;
67979;SDS011;54760;47.490;19.030;2024-03-06T09:34:06;24.20;;;8.82;;
67979;SDS011;54760;47.490;19.030;2024-03-06T09:36:32;11.27;;;8.55;;
67979;SDS011;54760;47.490;19.030;2024-03-06T09:38:58;11.40;;;8.00;;
67979;SDS011;54760;47.490;19.030;2024-03-06T09:41:24;12.50;;;8.60;;
67979;SDS011;54760;47.490;19.030;2024-03-06T09:43:49;12.45;;;8.77;;
67979;SDS011;54760;47.490;19.030;2024-03-06T09:46:15;12.07;;;8.90;;
67979;SDS011;54760;47.490;19.030;2024-03-06T09:48:45;11.57;;;9.02;;
67979;SDS011;54760;47.490;19.030;2024-03-06T09:51:11;17.17;;;9.20;;
67979;SDS011;54760;47.490;19.030;2024-03-06T09:53:38;13.25;;;10.00;;
67979;SDS011;54760;47.490;19.030;2024-03-06T09:56:04;11.65;;;9.23;;
67979;SDS011;54760;47.490;19.030;2024-03-06T09:58:30;13.43;;;10.07;;
67979;SDS011;54760;47.490;19.030;2024-03-06T10:01:00;13.57;;;10.40;;
67979;SDS011;54760;47.490;19.030;2024-03-06T10:03:28;15.30;;;11.18;;
67979;SDS011;54760;47.490;19.030;2024-03-06T10:05:54;15.57;;;11.38;;
67979;SDS011;54760;47.490;19.030;2024-03-06T10:08:20;14.45;;;11.82;;
67979;SDS011;54760;47.490;19.030;2024-03-06T10:10:49;16.62;;;12.65;;
67979;SDS011;54760;47.490;19.030;2024-03-06T10:13:18;18.35;;;12.00;;
67979;SDS011;54760;47.490;19.030;2024-03-06T10:15:55;16.60;;;12.07;;
67979;SDS011;54760;47.490;19.030;2024-03-06T10:18:28;16.77;;;11.12;;
67979;SDS011;54760;47.490;19.030;2024-03-06T10:20:55;12.98;;;10.98;;
67979;SDS011;54760;47.490;19.030;2024-03-06T10:23:21;13.05;;;11.25;;
67979;SDS011;54760;47.490;19.030;2024-03-06T10:25:47;14.00;;;10.88;;
67979;SDS011;54760;47.490;19.030;2024-03-06T10:28:19;16.75;;;10.35;;
67979;SDS011;54760;47.490;19.030;2024-03-06T10:30:47;14.55;;;11.15;;
67979;SDS011;54760;47.490;19.030;2024-03-06T10:33:14;14.70;;;10.75;;
67979;SDS011;54760;47.490;19.030;2024-03-06T10:35:42;15.43;;;10.68;;
67979;SDS011;54760;47.490;19.030;2024-03-06T10:38:09;14.15;;;10.18;;
67979;SDS011;54760;47.490;19.030;2024-03-06T10:40:42;17.85;;;11.12;;
67979;SDS011;54760;47.490;19.030;2024-03-06T10:43:08;15.38;;;10.82;;
67979;SDS011;54760;47.490;19.030;2024-03-06T10:45:40;15.95;;;10.82;;
67979;SDS011;54760;47.490;19.030;2024-03-06T10:48:12;13.60;;;10.90;;
67979;SDS011;54760;47.490;19.030;2024-03-06T10:50:39;15.20;;;10.63;;
67979;SDS011;54760;47.490;19.030;2024-03-06T10:53:10;13.25;;;10.60;;
67979;SDS011;54760;47.490;19.030;2024-03-06T10:55:37;13.62;;;11.15;;
67979;SDS011;54760;47.490;19.030;2024-03-06T10:58:07;14.43;;;10.90;;
67979;SDS011;54760;47.490;19.030;2024-03-06T11:00:39;13.93;;;11.12;;
67979;SDS011;54760;47.490;19.030;2024-03-06T11:03:11;16.12;;;11.07;;
67979;SDS011;54760;47.490;19.030;2024-03-06T11:05:43;13.25;;;10.48;;
67979;SDS011;54760;47.490;19.030;2024-03-06T11:08:13;17.87;;;11.25;;
67979;SDS011;54760;47.490;19.030;2024-03-06T11:10:40;16.52;;;11.18;;
67979;SDS011;54760;47.490;19.030;2024-03-06T11:15:44;17.08;;;10.27;;
67979;SDS011;54760;47.490;19.030;2024-03-06T11:23:28;16.27;;;10.68;;
67979;SDS011;54760;47.490;19.030;2024-03-06T11:28:20;14.50;;;10.70;;
67979;SDS011;54760;47.490;19.030;2024-03-06T11:31:03;15.40;;;10.40;;
67979;SDS011;54760;47.490;19.030;2024-03-06T11:33:41;15.25;;;11.02;;
67979;SDS011;54760;47.490;19.030;2024-03-06T11:38:58;15.00;;;10.05;;
67979;SDS011;54760;47.490;19.030;2024-03-06T11:41:26;15.65;;;10.00;;
67979;SDS011;54760;47.490;19.030;2024-03-06T11:43:56;14.77;;;10.45;;
67979;SDS011;54760;47.490;19.030;2024-03-06T11:46:43;18.85;;;10.07;;
67979;SDS011;54760;47.490;19.030;2024-03-06T11:49:26;15.20;;;10.25;;
67979;SDS011;54760;47.490;19.030;2024-03-06T11:51:54;13.13;;;10.90;;
67979;SDS011;54760;47.490;19.030;2024-03-06T11:54:21;15.40;;;10.60;;
67979;SDS011;54760;47.490;19.030;2024-03-06T11:56:49;14.18;;;9.90;;
67979;SDS011;54760;47.490;19.030;2024-03-06T11:59:25;15.38;;;9.45;;
67979;SDS011;54760;47.490;19.030;2024-03-06T12:01:51;14.82;;;9.45;;
67979;SDS011;54760;47.490;19.030;2024-03-06T12:04:18;14.20;;;9.50;;
67979;SDS011;54760;47.490;19.030;2024-03-06T12:06:45;14.43;;;9.80;;
67979;SDS011;54760;47.490;19.030;2024-03-06T12:09:10;13.55;;;9.70;;
67979;SDS011;54760;47.490;19.030;2024-03-06T12:11:36;15.15;;;10.25;;
67979;SDS011;54760;47.490;19.030;2024-03-06T12:14:02;14.35;;;9.75;;
67979;SDS011;54760;47.490;19.030;2024-03-06T12:16:28;14.87;;;9.55;;
67979;SDS011;54760;47.490;19.030;2024-03-06T12:18:56;13.10;;;9.18;;
67979;SDS011;54760;47.490;19.030;2024-03-06T12:21:32;15.43;;;9.32;;
67979;SDS011;54760;47.490;19.030;2024-03-06T12:26:30;14.75;;;9.43;;
67979;SDS011;54760;47.490;19.030;2024-03-06T12:29:05;18.20;;;10.40;;
67979;SDS011;54760;47.490;19.030;2024-03-06T12:31:35;15.40;;;10.43;;
67979;SDS011;54760;47.490;19.030;2024-03-06T12:34:02;15.02;;;10.93;;
67979;SDS011;54760;47.490;19.030;2024-03-06T12:36:28;21.17;;;10.65;;
67979;SDS011;54760;47.490;19.030;2024-03-06T12:38:55;15.95;;;10.43;;
67979;SDS011;54760;47.490;19.030;2024-03-06T12:41:21;14.68;;;10.75;;
67979;SDS011;54760;47.490;19.030;2024-03-06T12:43:47;19.25;;;11.27;;
67979;SDS011;54760;47.490;19.030;2024-03-06T12:46:12;19.90;;;10.55;;
67979;SDS011;54760;47.490;19.030;2024-03-06T12:48:38;19.85;;;10.55;;
67979;SDS011;54760;47.490;19.030;2024-03-06T12:51:03;16.70;;;10.63;;
67979;SDS011;54760;47.490;19.030;2024-03-06T12:53:32;17.90;;;10.63;;
67979;SDS011;54760;47.490;19.030;2024-03-06T12:56:01;16.12;;;10.32;;
67979;SDS011;54760;47.490;19.030;2024-03-06T12:58:26;13.73;;;10.70;;
67979;SDS011;54760;47.490;19.030;2024-03-06T13:00:52;11.85;;;9.80;;
67979;SDS011;54760;47.490;19.030;2024-03-06T13:03:18;16.35;;;10.40;;
67979;SDS011;54760;47.490;19.030;2024-03-06T13:05:44;15.82;;;10.90;;
67979;SDS011;54760;47.490;19.030;2024-03-06T13:08:11;18.08;;;10.98;;
67979;SDS011;54760;47.490;19.030;2024-03-06T13:10:39;15.88;;;10.70;;
67979;SDS011;54760;47.490;19.030;2024-03-06T13:13:05;17.75;;;10.48;;
67979;SDS011;54760;47.490;19.030;2024-03-06T13:15:31;15.43;;;10.75;;
67979;SDS011;54760;47.490;19.030;2024-03-06T13:17:59;16.90;;;10.77;;
67979;SDS011;54760;47.490;19.030;2024-03-06T13:20:24;17.85;;;11.18;;
67979;SDS011;54760;47.490;19.030;2024-03-06T13:22:50;14.10;;;10.52;;
67979;SDS011;54760;47.490;19.030;2024-03-06T13:25:15;16.15;;;10.50;;
67979;SDS011;54760;47.490;19.030;2024-03-06T13:27:41;22.33;;;11.82;;
67979;SDS011;54760;47.490;19.030;2024-03-06T13:30:06;17.83;;;10.85;;
67979;SDS011;54760;47.490;19.030;2024-03-06T13:32:33;17.15;;;11.35;;
67979;SDS011;54760;47.490;19.030;2024-03-06T13:34:58;16.02;;;10.55;;
67979;SDS011;54760;47.490;19.030;2024-03-06T13:37:24;16.37;;;9.95;;
67979;SDS011;54760;47.490;19.030;2024-03-06T13:39:49;16.30;;;10.32;;
67979;SDS011;54760;47.490;19.030;2024-03-06T13:42:15;17.75;;;10.05;;
67979;SDS011;54760;47.490;19.030;2024-03-06T13:44:40;16.35;;;9.93;;
67979;SDS011;54760;47.490;19.030;2024-03-06T13:47:06;14.50;;;10.15;;
67979;SDS011;54760;47.490;19.030;2024-03-06T13:49:39;17.30;;;10.23;;
67979;SDS011;54760;47.490;19.030;2024-03-06T13:52:06;16.02;;;9.73;;
67979;SDS011;54760;47.490;19.030;2024-03-06T13:54:35;16.55;;;10.30;;
67979;SDS011;54760;47.490;19.030;2024-03-06T13:57:02;16.40;;;9.73;;
67979;SDS011;54760;47.490;19.030;2024-03-06T13:59:29;18.92;;;10.70;;
67979;SDS011;54760;47.490;19.030;2024-03-06T14:01:56;15.90;;;10.23;;
67979;SDS011;54760;47.490;19.030;2024-03-06T14:04:24;17.15;;;10.38;;
67979;SDS011;54760;47.490;19.030;2024-03-06T14:06:49;18.10;;;10.15;;
67979;SDS011;54760;47.490;19.030;2024-03-06T14:09:15;20.92;;;10.52;;
67979;SDS011;54760;47.490;19.030;2024-03-06T14:11:41;9.93;;;6.95;;
67979;SDS011;54760;47.490;19.030;2024-03-06T14:14:06;13.30;;;5.55;;
67979;SDS011;54760;47.490;19.030;2024-03-06T14:16:32;10.65;;;5.82;;
67979;SDS011;54760;47.490;19.030;2024-03-06T14:18:57;6.50;;;3.40;;
67979;SDS011;54760;47.490;19.030;2024-03-06T14:21:23;6.53;;;3.00;;
67979;SDS011;54760;47.490;19.030;2024-03-06T14:23:49;6.05;;;2.70;;